sensor_id;sensor_type;location;lat;lon;timestamp;P1;durP1;ratioP1;P2;durP2;ratioP2
37097;SDS011;63608;49.572;12.348;2022-10-31T00:01:55;7.63;;;3.00;;
37097;SDS011;63608;49.572;12.348;2022-10-31T00:03:57;6.87;;;3.50;;
37097;SDS011;63608;49.572;12.348;2022-10-31T00:05:59;5.33;;;3.17;;
37097;SDS011;63608;49.572;12.348;2022-10-31T00:08:02;6.27;;;3.47;;
37097;SDS011;63608;49.572;12.348;2022-10-31T00:10:06;7.40;;;3.20;;
37097;SDS011;63608;49.572;12.348;2022-10-31T00:12:09;8.70;;;3.43;;
37097;SDS011;63608;49.572;12.348;2022-10-31T00:14:11;12.40;;;3.80;;
37097;SDS011;63608;49.572;12.348;2022-10-31T00:16:14;8.40;;;3.30;;
37097;SDS011;63608;49.572;12.348;2022-10-31T00:18:16;9.37;;;3.10;;
37097;SDS011;63608;49.572;12.348;2022-10-31T00:20:18;9.73;;;3.53;;
37097;SDS011;63608;49.572;12.348;2022-10-31T00:22:20;11.47;;;3.37;;
37097;SDS011;63608;49.572;12.348;2022-10-31T00:24:22;7.70;;;3.20;;
37097;SDS011;63608;49.572;12.348;2022-10-31T00:26:27;15.20;;;3.30;;
37097;SDS011;63608;49.572;12.348;2022-10-31T00:30:59;6.77;;;2.90;;
37097;SDS011;63608;49.572;12.348;2022-10-31T00:33:02;2.93;;;2.63;;
37097;SDS011;63608;49.572;12.348;2022-10-31T00:35:05;28.03;;;4.57;;
37097;SDS011;63608;49.572;12.348;2022-10-31T00:37:07;4.50;;;2.73;;
37097;SDS011;63608;49.572;12.348;2022-10-31T00:39:09;9.57;;;3.20;;
37097;SDS011;63608;49.572;12.348;2022-10-31T00:41:12;5.37;;;2.83;;
37097;SDS011;63608;49.572;12.348;2022-10-31T00:43:16;6.50;;;3.40;;
37097;SDS011;63608;49.572;12.348;2022-10-31T00:45:18;6.53;;;3.00;;
37097;SDS011;63608;49.572;12.348;2022-10-31T00:47:20;10.37;;;3.23;;
37097;SDS011;63608;49.572;12.348;2022-10-31T00:49:22;7.13;;;3.20;;
37097;SDS011;63608;49.572;12.348;2022-10-31T00:51:25;5.47;;;2.83;;
37097;SDS011;63608;49.572;12.348;2022-10-31T00:53:27;8.47;;;3.20;;
37097;SDS011;63608;49.572;12.348;2022-10-31T00:55:29;7.00;;;3.00;;
37097;SDS011;63608;49.572;12.348;2022-10-31T00:57:31;3.90;;;3.27;;
37097;SDS011;63608;49.572;12.348;2022-10-31T00:59:35;4.43;;;3.33;;
37097;SDS011;63608;49.572;12.348;2022-10-31T01:01:37;12.00;;;4.20;;
37097;SDS011;63608;49.572;12.348;2022-10-31T01:03:39;4.80;;;3.23;;
37097;SDS011;63608;49.572;12.348;2022-10-31T01:05:41;3.33;;;2.90;;
37097;SDS011;63608;49.572;12.348;2022-10-31T01:07:43;8.10;;;3.80;;
37097;SDS011;63608;49.572;12.348;2022-10-31T01:09:45;10.97;;;4.00;;
37097;SDS011;63608;49.572;12.348;2022-10-31T01:11:47;7.73;;;3.77;;
37097;SDS011;63608;49.572;12.348;2022-10-31T01:13:50;5.87;;;3.40;;
37097;SDS011;63608;49.572;12.348;2022-10-31T01:15:55;7.90;;;4.20;;
37097;SDS011;63608;49.572;12.348;2022-10-31T01:17:58;12.70;;;4.80;;
37097;SDS011;63608;49.572;12.348;2022-10-31T01:20:00;13.30;;;4.17;;
37097;SDS011;63608;49.572;12.348;2022-10-31T01:22:02;9.17;;;3.90;;
37097;SDS011;63608;49.572;12.348;2022-10-31T01:24:04;8.90;;;3.47;;
37097;SDS011;63608;49.572;12.348;2022-10-31T01:26:08;8.83;;;3.40;;
37097;SDS011;63608;49.572;12.348;2022-10-31T01:28:12;6.70;;;3.17;;
37097;SDS011;63608;49.572;12.348;2022-10-31T01:30:14;4.00;;;3.10;;
37097;SDS011;63608;49.572;12.348;2022-10-31T01:32:18;6.30;;;3.20;;
37097;SDS011;63608;49.572;12.348;2022-10-31T01:34:20;7.03;;;3.20;;
37097;SDS011;63608;49.572;12.348;2022-10-31T01:36:22;4.70;;;2.83;;
37097;SDS011;63608;49.572;12.348;2022-10-31T01:38:25;7.90;;;3.00;;
37097;SDS011;63608;49.572;12.348;2022-10-31T01:40:29;3.00;;;2.80;;
37097;SDS011;63608;49.572;12.348;2022-10-31T01:42:31;5.80;;;2.83;;
37097;SDS011;63608;49.572;12.348;2022-10-31T01:44:50;7.30;;;3.47;;
37097;SDS011;63608;49.572;12.348;2022-10-31T01:46:55;7.10;;;3.00;;
37097;SDS011;63608;49.572;12.348;2022-10-31T01:49:01;5.93;;;2.80;;
37097;SDS011;63608;49.572;12.348;2022-10-31T01:51:05;7.73;;;3.13;;
37097;SDS011;63608;49.572;12.348;2022-10-31T01:53:08;3.13;;;2.80;;
37097;SDS011;63608;49.572;12.348;2022-10-31T01:55:12;4.10;;;3.20;;
37097;SDS011;63608;49.572;12.348;2022-10-31T01:57:15;4.40;;;2.70;;
37097;SDS011;63608;49.572;12.348;2022-10-31T01:59:21;5.70;;;2.80;;
37097;SDS011;63608;49.572;12.348;2022-10-31T02:01:24;5.90;;;2.63;;
37097;SDS011;63608;49.572;12.348;2022-10-31T02:03:26;8.63;;;3.50;;
37097;SDS011;63608;49.572;12.348;2022-10-31T02:05:31;5.20;;;3.00;;
37097;SDS011;63608;49.572;12.348;2022-10-31T02:07:35;8.23;;;2.97;;
37097;SDS011;63608;49.572;12.348;2022-10-31T02:09:41;6.33;;;3.20;;
37097;SDS011;63608;49.572;12.348;2022-10-31T02:11:43;7.20;;;3.53;;
37097;SDS011;63608;49.572;12.348;2022-10-31T02:13:45;11.73;;;3.30;;
37097;SDS011;63608;49.572;12.348;2022-10-31T02:15:49;7.20;;;2.83;;
37097;SDS011;63608;49.572;12.348;2022-10-31T02:17:53;4.90;;;2.80;;
37097;SDS011;63608;49.572;12.348;2022-10-31T02:19:57;8.77;;;2.77;;
37097;SDS011;63608;49.572;12.348;2022-10-31T02:22:08;10.30;;;3.03;;
37097;SDS011;63608;49.572;12.348;2022-10-31T02:24:26;9.00;;;2.90;;
37097;SDS011;63608;49.572;12.348;2022-10-31T02:29:14;6.27;;;3.27;;
37097;SDS011;63608;49.572;12.348;2022-10-31T02:31:27;11.60;;;3.60;;
37097;SDS011;63608;49.572;12.348;2022-10-31T02:33:35;6.50;;;3.90;;
37097;SDS011;63608;49.572;12.348;2022-10-31T02:35:46;6.93;;;3.90;;
37097;SDS011;63608;49.572;12.348;2022-10-31T02:37:54;5.57;;;4.20;;
37097;SDS011;63608;49.572;12.348;2022-10-31T02:40:01;6.60;;;3.60;;
37097;SDS011;63608;49.572;12.348;2022-10-31T02:44:31;16.63;;;4.27;;
37097;SDS011;63608;49.572;12.348;2022-10-31T02:46:56;5.10;;;4.00;;
37097;SDS011;63608;49.572;12.348;2022-10-31T02:49:01;4.40;;;3.30;;
37097;SDS011;63608;49.572;12.348;2022-10-31T02:51:06;5.03;;;4.47;;
37097;SDS011;63608;49.572;12.348;2022-10-31T02:53:09;5.47;;;3.90;;
37097;SDS011;63608;49.572;12.348;2022-10-31T02:55:11;5.23;;;3.70;;
37097;SDS011;63608;49.572;12.348;2022-10-31T02:57:34;8.47;;;3.10;;
37097;SDS011;63608;49.572;12.348;2022-10-31T02:59:37;7.50;;;2.93;;
37097;SDS011;63608;49.572;12.348;2022-10-31T03:01:51;4.83;;;2.87;;
37097;SDS011;63608;49.572;12.348;2022-10-31T03:04:14;5.73;;;3.50;;
37097;SDS011;63608;49.572;12.348;2022-10-31T03:06:24;5.33;;;3.90;;
37097;SDS011;63608;49.572;12.348;2022-10-31T03:08:33;5.87;;;3.83;;
37097;SDS011;63608;49.572;12.348;2022-10-31T03:10:39;6.57;;;4.10;;
37097;SDS011;63608;49.572;12.348;2022-10-31T03:12:45;7.27;;;3.67;;
37097;SDS011;63608;49.572;12.348;2022-10-31T03:14:53;7.97;;;3.70;;
37097;SDS011;63608;49.572;12.348;2022-10-31T03:17:04;5.43;;;3.47;;
37097;SDS011;63608;49.572;12.348;2022-10-31T03:19:08;10.50;;;3.77;;
37097;SDS011;63608;49.572;12.348;2022-10-31T03:21:12;7.10;;;3.43;;
37097;SDS011;63608;49.572;12.348;2022-10-31T03:23:15;8.50;;;3.90;;
37097;SDS011;63608;49.572;12.348;2022-10-31T03:25:18;5.30;;;3.40;;
37097;SDS011;63608;49.572;12.348;2022-10-31T03:27:21;5.57;;;3.67;;
37097;SDS011;63608;49.572;12.348;2022-10-31T03:29:25;7.53;;;4.00;;
37097;SDS011;63608;49.572;12.348;2022-10-31T03:31:30;4.33;;;3.50;;
37097;SDS011;63608;49.572;12.348;2022-10-31T03:33:36;5.07;;;4.23;;
37097;SDS011;63608;49.572;12.348;2022-10-31T03:35:41;6.73;;;3.80;;
37097;SDS011;63608;49.572;12.348;2022-10-31T03:37:44;4.00;;;3.20;;
37097;SDS011;63608;49.572;12.348;2022-10-31T03:39:47;7.63;;;2.97;;
37097;SDS011;63608;49.572;12.348;2022-10-31T03:41:52;4.20;;;2.93;;
37097;SDS011;63608;49.572;12.348;2022-10-31T03:43:57;5.53;;;2.93;;
37097;SDS011;63608;49.572;12.348;2022-10-31T03:46:04;3.73;;;2.70;;
37097;SDS011;63608;49.572;12.348;2022-10-31T03:48:07;7.40;;;3.20;;
37097;SDS011;63608;49.572;12.348;2022-10-31T03:50:12;4.47;;;2.93;;
37097;SDS011;63608;49.572;12.348;2022-10-31T03:52:18;3.63;;;3.30;;
37097;SDS011;63608;49.572;12.348;2022-10-31T03:54:25;3.87;;;3.57;;
37097;SDS011;63608;49.572;12.348;2022-10-31T03:56:31;5.83;;;3.67;;
37097;SDS011;63608;49.572;12.348;2022-10-31T03:58:36;3.97;;;3.70;;
37097;SDS011;63608;49.572;12.348;2022-10-31T04:00:42;6.20;;;3.70;;
37097;SDS011;63608;49.572;12.348;2022-10-31T04:02:47;4.20;;;3.83;;
37097;SDS011;63608;49.572;12.348;2022-10-31T04:04:52;4.07;;;3.77;;
37097;SDS011;63608;49.572;12.348;2022-10-31T04:06:56;4.83;;;3.83;;
37097;SDS011;63608;49.572;12.348;2022-10-31T04:09:00;4.90;;;3.70;;
37097;SDS011;63608;49.572;12.348;2022-10-31T04:16:58;9.53;;;3.23;;
37097;SDS011;63608;49.572;12.348;2022-10-31T04:19:01;8.50;;;3.27;;
37097;SDS011;63608;49.572;12.348;2022-10-31T04:21:03;3.70;;;3.33;;
37097;SDS011;63608;49.572;12.348;2022-10-31T04:23:11;3.93;;;3.63;;
37097;SDS011;63608;49.572;12.348;2022-10-31T04:25:17;4.37;;;3.67;;
37097;SDS011;63608;49.572;12.348;2022-10-31T04:27:19;4.20;;;3.80;;
37097;SDS011;63608;49.572;12.348;2022-10-31T04:29:22;4.10;;;3.70;;
37097;SDS011;63608;49.572;12.348;2022-10-31T04:31:24;3.37;;;3.17;;
37097;SDS011;63608;49.572;12.348;2022-10-31T04:33:26;4.07;;;3.67;;
37097;SDS011;63608;49.572;12.348;2022-10-31T04:35:28;4.70;;;4.10;;
37097;SDS011;63608;49.572;12.348;2022-10-31T04:37:30;4.70;;;3.37;;
37097;SDS011;63608;49.572;12.348;2022-10-31T04:39:34;3.80;;;3.50;;
37097;SDS011;63608;49.572;12.348;2022-10-31T04:41:36;6.67;;;3.80;;
37097;SDS011;63608;49.572;12.348;2022-10-31T04:46:34;4.80;;;4.10;;
37097;SDS011;63608;49.572;12.348;2022-10-31T04:48:36;5.80;;;3.80;;
37097;SDS011;63608;49.572;12.348;2022-10-31T04:50:39;4.40;;;4.00;;
37097;SDS011;63608;49.572;12.348;2022-10-31T04:52:41;6.40;;;4.13;;
37097;SDS011;63608;49.572;12.348;2022-10-31T04:54:45;5.47;;;4.97;;
37097;SDS011;63608;49.572;12.348;2022-10-31T04:56:47;6.13;;;5.63;;
37097;SDS011;63608;49.572;12.348;2022-10-31T04:58:49;5.27;;;4.50;;
37097;SDS011;63608;49.572;12.348;2022-10-31T05:00:51;8.53;;;4.80;;
37097;SDS011;63608;49.572;12.348;2022-10-31T05:02:55;6.00;;;4.37;;
37097;SDS011;63608;49.572;12.348;2022-10-31T05:04:57;4.77;;;4.47;;
37097;SDS011;63608;49.572;12.348;2022-10-31T05:06:59;6.23;;;4.93;;
37097;SDS011;63608;49.572;12.348;2022-10-31T05:09:01;6.20;;;4.90;;
37097;SDS011;63608;49.572;12.348;2022-10-31T05:11:05;5.57;;;4.97;;
37097;SDS011;63608;49.572;12.348;2022-10-31T05:13:07;5.30;;;4.83;;
37097;SDS011;63608;49.572;12.348;2022-10-31T05:15:09;7.93;;;5.50;;
37097;SDS011;63608;49.572;12.348;2022-10-31T05:17:11;5.40;;;4.70;;
37097;SDS011;63608;49.572;12.348;2022-10-31T05:19:13;5.27;;;4.60;;
37097;SDS011;63608;49.572;12.348;2022-10-31T05:21:16;6.67;;;4.73;;
37097;SDS011;63608;49.572;12.348;2022-10-31T05:23:18;4.20;;;3.80;;
37097;SDS011;63608;49.572;12.348;2022-10-31T05:25:20;4.20;;;3.77;;
37097;SDS011;63608;49.572;12.348;2022-10-31T05:27:25;6.80;;;4.80;;
37097;SDS011;63608;49.572;12.348;2022-10-31T05:29:27;4.30;;;4.00;;
37097;SDS011;63608;49.572;12.348;2022-10-31T05:31:33;5.80;;;3.87;;
37097;SDS011;63608;49.572;12.348;2022-10-31T05:33:35;4.30;;;3.90;;
37097;SDS011;63608;49.572;12.348;2022-10-31T05:35:37;4.20;;;3.90;;
37097;SDS011;63608;49.572;12.348;2022-10-31T05:37:39;4.37;;;3.50;;
37097;SDS011;63608;49.572;12.348;2022-10-31T05:39:41;3.47;;;3.27;;
37097;SDS011;63608;49.572;12.348;2022-10-31T05:41:43;5.23;;;4.10;;
37097;SDS011;63608;49.572;12.348;2022-10-31T05:43:47;15.60;;;3.73;;
37097;SDS011;63608;49.572;12.348;2022-10-31T05:45:51;18.03;;;4.60;;
37097;SDS011;63608;49.572;12.348;2022-10-31T05:47:54;4.30;;;4.00;;
37097;SDS011;63608;49.572;12.348;2022-10-31T05:49:56;14.43;;;4.53;;
37097;SDS011;63608;49.572;12.348;2022-10-31T05:51:58;5.57;;;3.93;;
37097;SDS011;63608;49.572;12.348;2022-10-31T05:54:01;4.93;;;3.80;;
37097;SDS011;63608;49.572;12.348;2022-10-31T05:56:03;5.03;;;4.10;;
37097;SDS011;63608;49.572;12.348;2022-10-31T05:58:05;6.70;;;3.77;;
37097;SDS011;63608;49.572;12.348;2022-10-31T06:00:10;5.00;;;4.37;;
37097;SDS011;63608;49.572;12.348;2022-10-31T06:02:13;3.97;;;3.70;;
37097;SDS011;63608;49.572;12.348;2022-10-31T06:04:15;4.07;;;3.70;;
37097;SDS011;63608;49.572;12.348;2022-10-31T06:06:18;4.53;;;4.13;;
37097;SDS011;63608;49.572;12.348;2022-10-31T06:08:20;15.63;;;4.50;;
37097;SDS011;63608;49.572;12.348;2022-10-31T06:10:22;7.07;;;4.47;;
37097;SDS011;63608;49.572;12.348;2022-10-31T06:12:24;7.07;;;5.00;;
37097;SDS011;63608;49.572;12.348;2022-10-31T06:14:26;21.67;;;4.87;;
37097;SDS011;63608;49.572;12.348;2022-10-31T06:16:30;6.77;;;5.00;;
37097;SDS011;63608;49.572;12.348;2022-10-31T06:18:32;5.20;;;4.60;;
37097;SDS011;63608;49.572;12.348;2022-10-31T06:20:34;11.07;;;5.27;;
37097;SDS011;63608;49.572;12.348;2022-10-31T06:22:36;5.57;;;4.73;;
37097;SDS011;63608;49.572;12.348;2022-10-31T06:24:39;4.93;;;4.43;;
37097;SDS011;63608;49.572;12.348;2022-10-31T06:26:41;4.87;;;4.47;;
37097;SDS011;63608;49.572;12.348;2022-10-31T06:28:43;5.00;;;4.60;;
37097;SDS011;63608;49.572;12.348;2022-10-31T06:30:45;5.17;;;4.60;;
37097;SDS011;63608;49.572;12.348;2022-10-31T06:32:48;5.83;;;5.23;;
37097;SDS011;63608;49.572;12.348;2022-10-31T06:34:50;13.53;;;5.67;;
37097;SDS011;63608;49.572;12.348;2022-10-31T06:39:49;20.10;;;6.27;;
37097;SDS011;63608;49.572;12.348;2022-10-31T06:41:51;16.13;;;7.40;;
37097;SDS011;63608;49.572;12.348;2022-10-31T06:43:54;9.93;;;6.97;;
37097;SDS011;63608;49.572;12.348;2022-10-31T06:45:55;73.57;;;14.30;;
37097;SDS011;63608;49.572;12.348;2022-10-31T06:47:59;29.23;;;13.23;;
37097;SDS011;63608;49.572;12.348;2022-10-31T06:50:01;26.83;;;13.13;;
37097;SDS011;63608;49.572;12.348;2022-10-31T06:52:04;23.73;;;11.37;;
37097;SDS011;63608;49.572;12.348;2022-10-31T06:54:06;14.23;;;7.80;;
37097;SDS011;63608;49.572;12.348;2022-10-31T06:56:08;14.07;;;7.20;;
37097;SDS011;63608;49.572;12.348;2022-10-31T06:58:10;17.20;;;9.50;;
37097;SDS011;63608;49.572;12.348;2022-10-31T07:00:12;18.93;;;10.50;;
37097;SDS011;63608;49.572;12.348;2022-10-31T07:02:22;22.67;;;9.80;;
37097;SDS011;63608;49.572;12.348;2022-10-31T07:04:26;10.20;;;7.77;;
37097;SDS011;63608;49.572;12.348;2022-10-31T07:06:28;9.23;;;7.90;;
37097;SDS011;63608;49.572;12.348;2022-10-31T07:08:30;9.70;;;7.60;;
37097;SDS011;63608;49.572;12.348;2022-10-31T07:10:33;10.67;;;7.73;;
37097;SDS011;63608;49.572;12.348;2022-10-31T07:12:36;8.90;;;7.50;;
37097;SDS011;63608;49.572;12.348;2022-10-31T07:14:37;10.27;;;7.47;;
37097;SDS011;63608;49.572;12.348;2022-10-31T07:16:40;11.67;;;8.13;;
37097;SDS011;63608;49.572;12.348;2022-10-31T07:18:42;7.90;;;5.93;;
37097;SDS011;63608;49.572;12.348;2022-10-31T07:20:46;8.27;;;6.13;;
37097;SDS011;63608;49.572;12.348;2022-10-31T07:22:48;9.97;;;5.57;;
37097;SDS011;63608;49.572;12.348;2022-10-31T07:24:50;9.20;;;5.00;;
37097;SDS011;63608;49.572;12.348;2022-10-31T07:26:52;6.23;;;5.63;;
37097;SDS011;63608;49.572;12.348;2022-10-31T07:28:55;5.90;;;4.77;;
37097;SDS011;63608;49.572;12.348;2022-10-31T07:30:57;7.37;;;5.73;;
37097;SDS011;63608;49.572;12.348;2022-10-31T07:32:59;6.13;;;5.57;;
37097;SDS011;63608;49.572;12.348;2022-10-31T07:35:01;5.87;;;5.17;;
37097;SDS011;63608;49.572;12.348;2022-10-31T07:37:05;6.83;;;5.63;;
37097;SDS011;63608;49.572;12.348;2022-10-31T07:39:07;6.83;;;5.83;;
37097;SDS011;63608;49.572;12.348;2022-10-31T07:41:25;5.97;;;5.47;;
37097;SDS011;63608;49.572;12.348;2022-10-31T07:43:27;5.90;;;5.40;;
37097;SDS011;63608;49.572;12.348;2022-10-31T07:45:29;7.90;;;5.40;;
37097;SDS011;63608;49.572;12.348;2022-10-31T07:47:37;11.00;;;6.03;;
37097;SDS011;63608;49.572;12.348;2022-10-31T07:49:39;7.20;;;5.50;;
37097;SDS011;63608;49.572;12.348;2022-10-31T07:51:41;7.47;;;5.90;;
37097;SDS011;63608;49.572;12.348;2022-10-31T07:53:45;9.37;;;5.87;;
37097;SDS011;63608;49.572;12.348;2022-10-31T07:55:47;7.57;;;6.00;;
37097;SDS011;63608;49.572;12.348;2022-10-31T07:57:54;8.43;;;6.33;;
37097;SDS011;63608;49.572;12.348;2022-10-31T07:59:57;6.67;;;5.90;;
37097;SDS011;63608;49.572;12.348;2022-10-31T08:02:01;6.93;;;6.23;;
37097;SDS011;63608;49.572;12.348;2022-10-31T08:04:03;7.40;;;6.60;;
37097;SDS011;63608;49.572;12.348;2022-10-31T08:06:05;9.80;;;6.30;;
37097;SDS011;63608;49.572;12.348;2022-10-31T08:08:08;11.93;;;6.10;;
37097;SDS011;63608;49.572;12.348;2022-10-31T08:10:11;9.37;;;6.43;;
37097;SDS011;63608;49.572;12.348;2022-10-31T08:12:13;10.70;;;7.53;;
37097;SDS011;63608;49.572;12.348;2022-10-31T08:14:16;8.60;;;7.00;;
37097;SDS011;63608;49.572;12.348;2022-10-31T08:16:18;13.17;;;7.60;;
37097;SDS011;63608;49.572;12.348;2022-10-31T08:18:20;10.20;;;7.10;;
37097;SDS011;63608;49.572;12.348;2022-10-31T08:20:23;9.03;;;7.80;;
37097;SDS011;63608;49.572;12.348;2022-10-31T08:22:26;11.03;;;8.40;;
37097;SDS011;63608;49.572;12.348;2022-10-31T08:24:28;11.00;;;7.80;;
37097;SDS011;63608;49.572;12.348;2022-10-31T08:26:31;9.83;;;6.90;;
37097;SDS011;63608;49.572;12.348;2022-10-31T08:28:33;7.97;;;7.03;;
37097;SDS011;63608;49.572;12.348;2022-10-31T08:30:36;12.97;;;7.70;;
37097;SDS011;63608;49.572;12.348;2022-10-31T08:32:39;8.63;;;7.70;;
37097;SDS011;63608;49.572;12.348;2022-10-31T08:34:41;11.83;;;8.50;;
37097;SDS011;63608;49.572;12.348;2022-10-31T08:36:43;11.40;;;8.03;;
37097;SDS011;63608;49.572;12.348;2022-10-31T08:38:46;10.10;;;8.47;;
37097;SDS011;63608;49.572;12.348;2022-10-31T08:40:48;10.40;;;8.27;;
37097;SDS011;63608;49.572;12.348;2022-10-31T08:42:59;13.87;;;7.90;;
37097;SDS011;63608;49.572;12.348;2022-10-31T08:45:02;10.03;;;7.80;;
37097;SDS011;63608;49.572;12.348;2022-10-31T08:47:04;9.67;;;8.00;;
37097;SDS011;63608;49.572;12.348;2022-10-31T08:49:06;12.63;;;8.67;;
37097;SDS011;63608;49.572;12.348;2022-10-31T08:51:09;9.73;;;8.00;;
37097;SDS011;63608;49.572;12.348;2022-10-31T08:53:11;9.80;;;8.13;;
37097;SDS011;63608;49.572;12.348;2022-10-31T08:55:15;11.77;;;8.23;;
37097;SDS011;63608;49.572;12.348;2022-10-31T08:57:33;10.13;;;7.60;;
37097;SDS011;63608;49.572;12.348;2022-10-31T08:59:37;10.13;;;7.87;;
37097;SDS011;63608;49.572;12.348;2022-10-31T09:01:39;11.30;;;7.47;;
37097;SDS011;63608;49.572;12.348;2022-10-31T09:03:41;13.07;;;8.63;;
37097;SDS011;63608;49.572;12.348;2022-10-31T09:05:44;15.40;;;8.97;;
37097;SDS011;63608;49.572;12.348;2022-10-31T09:07:46;8.83;;;7.80;;
37097;SDS011;63608;49.572;12.348;2022-10-31T09:09:48;12.73;;;7.77;;
37097;SDS011;63608;49.572;12.348;2022-10-31T09:11:50;9.80;;;7.83;;
37097;SDS011;63608;49.572;12.348;2022-10-31T09:13:52;18.07;;;8.60;;
37097;SDS011;63608;49.572;12.348;2022-10-31T09:18:17;9.17;;;7.13;;
37097;SDS011;63608;49.572;12.348;2022-10-31T09:20:21;9.07;;;7.80;;
37097;SDS011;63608;49.572;12.348;2022-10-31T09:22:23;19.93;;;8.57;;
37097;SDS011;63608;49.572;12.348;2022-10-31T09:24:25;11.43;;;7.70;;
37097;SDS011;63608;49.572;12.348;2022-10-31T09:26:27;11.53;;;8.40;;
37097;SDS011;63608;49.572;12.348;2022-10-31T09:28:30;18.17;;;9.17;;
37097;SDS011;63608;49.572;12.348;2022-10-31T09:30:33;15.80;;;8.90;;
37097;SDS011;63608;49.572;12.348;2022-10-31T09:32:38;11.70;;;7.53;;
37097;SDS011;63608;49.572;12.348;2022-10-31T09:34:40;12.37;;;8.30;;
37097;SDS011;63608;49.572;12.348;2022-10-31T09:36:42;18.30;;;8.70;;
37097;SDS011;63608;49.572;12.348;2022-10-31T09:38:46;13.83;;;8.03;;
37097;SDS011;63608;49.572;12.348;2022-10-31T09:40:49;12.40;;;8.67;;
37097;SDS011;63608;49.572;12.348;2022-10-31T09:42:57;11.83;;;8.20;;
37097;SDS011;63608;49.572;12.348;2022-10-31T09:45:05;10.13;;;8.93;;
37097;SDS011;63608;49.572;12.348;2022-10-31T09:47:09;14.27;;;8.17;;
37097;SDS011;63608;49.572;12.348;2022-10-31T09:51:40;12.40;;;8.53;;
37097;SDS011;63608;49.572;12.348;2022-10-31T09:53:46;14.40;;;8.10;;
37097;SDS011;63608;49.572;12.348;2022-10-31T09:55:50;13.97;;;8.70;;
37097;SDS011;63608;49.572;12.348;2022-10-31T09:57:52;12.33;;;8.77;;
37097;SDS011;63608;49.572;12.348;2022-10-31T09:59:55;14.20;;;8.87;;
37097;SDS011;63608;49.572;12.348;2022-10-31T10:01:58;15.73;;;9.67;;
37097;SDS011;63608;49.572;12.348;2022-10-31T10:04:03;11.40;;;8.33;;
37097;SDS011;63608;49.572;12.348;2022-10-31T10:06:14;9.53;;;7.50;;
37097;SDS011;63608;49.572;12.348;2022-10-31T10:08:18;15.23;;;8.60;;
37097;SDS011;63608;49.572;12.348;2022-10-31T10:10:22;15.83;;;8.73;;
37097;SDS011;63608;49.572;12.348;2022-10-31T10:12:33;11.07;;;8.53;;
37097;SDS011;63608;49.572;12.348;2022-10-31T10:14:42;10.70;;;7.80;;
37097;SDS011;63608;49.572;12.348;2022-10-31T10:17:02;8.50;;;7.20;;
37097;SDS011;63608;49.572;12.348;2022-10-31T10:19:16;13.33;;;8.00;;
37097;SDS011;63608;49.572;12.348;2022-10-31T10:21:28;14.93;;;8.17;;
37097;SDS011;63608;49.572;12.348;2022-10-31T10:23:47;9.80;;;7.30;;
37097;SDS011;63608;49.572;12.348;2022-10-31T10:25:57;9.70;;;7.00;;
37097;SDS011;63608;49.572;12.348;2022-10-31T10:28:07;9.20;;;6.20;;
37097;SDS011;63608;49.572;12.348;2022-10-31T10:30:17;9.83;;;6.40;;
37097;SDS011;63608;49.572;12.348;2022-10-31T10:32:22;10.97;;;5.63;;
37097;SDS011;63608;49.572;12.348;2022-10-31T10:34:26;8.17;;;5.50;;
37097;SDS011;63608;49.572;12.348;2022-10-31T10:36:32;13.07;;;5.77;;
37097;SDS011;63608;49.572;12.348;2022-10-31T10:38:37;10.63;;;6.20;;
37097;SDS011;63608;49.572;12.348;2022-10-31T10:40:44;11.33;;;5.70;;
37097;SDS011;63608;49.572;12.348;2022-10-31T10:42:50;12.17;;;5.80;;
37097;SDS011;63608;49.572;12.348;2022-10-31T10:45:15;7.17;;;5.13;;
37097;SDS011;63608;49.572;12.348;2022-10-31T10:47:37;10.60;;;5.20;;
37097;SDS011;63608;49.572;12.348;2022-10-31T10:49:43;10.50;;;5.40;;
37097;SDS011;63608;49.572;12.348;2022-10-31T10:51:52;5.90;;;5.30;;
37097;SDS011;63608;49.572;12.348;2022-10-31T10:57:03;11.67;;;5.33;;
37097;SDS011;63608;49.572;12.348;2022-10-31T10:59:13;8.17;;;5.00;;
37097;SDS011;63608;49.572;12.348;2022-10-31T11:01:17;10.50;;;5.20;;
37097;SDS011;63608;49.572;12.348;2022-10-31T11:03:19;11.50;;;5.10;;
37097;SDS011;63608;49.572;12.348;2022-10-31T11:05:25;7.77;;;5.10;;
37097;SDS011;63608;49.572;12.348;2022-10-31T11:07:38;6.33;;;4.50;;
37097;SDS011;63608;49.572;12.348;2022-10-31T11:09:40;13.47;;;4.67;;
37097;SDS011;63608;49.572;12.348;2022-10-31T11:11:43;6.60;;;4.60;;
37097;SDS011;63608;49.572;12.348;2022-10-31T11:13:45;10.20;;;4.67;;
37097;SDS011;63608;49.572;12.348;2022-10-31T11:15:50;7.63;;;4.87;;
37097;SDS011;63608;49.572;12.348;2022-10-31T11:17:54;5.57;;;5.00;;
37097;SDS011;63608;49.572;12.348;2022-10-31T11:20:01;9.27;;;4.53;;
37097;SDS011;63608;49.572;12.348;2022-10-31T11:22:08;8.53;;;4.60;;
37097;SDS011;63608;49.572;12.348;2022-10-31T11:24:20;7.17;;;4.63;;
37097;SDS011;63608;49.572;12.348;2022-10-31T11:26:26;4.00;;;3.60;;
37097;SDS011;63608;49.572;12.348;2022-10-31T11:28:31;9.33;;;4.10;;
37097;SDS011;63608;49.572;12.348;2022-10-31T11:30:35;6.87;;;5.03;;
37097;SDS011;63608;49.572;12.348;2022-10-31T11:32:46;9.37;;;3.70;;
37097;SDS011;63608;49.572;12.348;2022-10-31T11:34:52;12.13;;;3.80;;
37097;SDS011;63608;49.572;12.348;2022-10-31T11:36:58;7.70;;;3.90;;
37097;SDS011;63608;49.572;12.348;2022-10-31T11:39:04;10.00;;;4.23;;
37097;SDS011;63608;49.572;12.348;2022-10-31T11:41:11;11.40;;;4.00;;
37097;SDS011;63608;49.572;12.348;2022-10-31T11:43:18;10.83;;;3.57;;
37097;SDS011;63608;49.572;12.348;2022-10-31T11:45:28;7.27;;;3.20;;
37097;SDS011;63608;49.572;12.348;2022-10-31T11:47:32;7.50;;;3.60;;
37097;SDS011;63608;49.572;12.348;2022-10-31T11:49:37;7.90;;;3.70;;
37097;SDS011;63608;49.572;12.348;2022-10-31T11:51:47;8.03;;;3.30;;
37097;SDS011;63608;49.572;12.348;2022-10-31T11:53:56;5.90;;;3.53;;
37097;SDS011;63608;49.572;12.348;2022-10-31T11:56:03;6.77;;;2.90;;
37097;SDS011;63608;49.572;12.348;2022-10-31T11:58:21;7.33;;;3.00;;
37097;SDS011;63608;49.572;12.348;2022-10-31T12:00:26;10.20;;;3.33;;
37097;SDS011;63608;49.572;12.348;2022-10-31T12:02:29;5.77;;;3.37;;
37097;SDS011;63608;49.572;12.348;2022-10-31T12:04:37;5.53;;;3.40;;
37097;SDS011;63608;49.572;12.348;2022-10-31T12:06:44;7.97;;;3.70;;
37097;SDS011;63608;49.572;12.348;2022-10-31T12:08:48;9.70;;;3.30;;
37097;SDS011;63608;49.572;12.348;2022-10-31T12:10:52;8.37;;;3.50;;
37097;SDS011;63608;49.572;12.348;2022-10-31T12:13:02;6.10;;;2.97;;
37097;SDS011;63608;49.572;12.348;2022-10-31T12:15:16;8.93;;;3.40;;
37097;SDS011;63608;49.572;12.348;2022-10-31T12:17:29;5.60;;;3.50;;
37097;SDS011;63608;49.572;12.348;2022-10-31T12:19:40;3.63;;;3.00;;
37097;SDS011;63608;49.572;12.348;2022-10-31T12:21:52;10.40;;;3.00;;
37097;SDS011;63608;49.572;12.348;2022-10-31T12:24:10;7.33;;;2.97;;
37097;SDS011;63608;49.572;12.348;2022-10-31T12:26:21;9.03;;;3.00;;
37097;SDS011;63608;49.572;12.348;2022-10-31T12:28:36;6.67;;;2.90;;
37097;SDS011;63608;49.572;12.348;2022-10-31T12:31:01;7.63;;;3.63;;
37097;SDS011;63608;49.572;12.348;2022-10-31T12:33:12;7.40;;;3.50;;
37097;SDS011;63608;49.572;12.348;2022-10-31T12:35:33;10.07;;;3.80;;
37097;SDS011;63608;49.572;12.348;2022-10-31T12:37:45;5.83;;;3.30;;
37097;SDS011;63608;49.572;12.348;2022-10-31T12:39:56;7.80;;;3.07;;
37097;SDS011;63608;49.572;12.348;2022-10-31T12:42:08;10.13;;;3.03;;
37097;SDS011;63608;49.572;12.348;2022-10-31T12:46:56;6.50;;;3.20;;
37097;SDS011;63608;49.572;12.348;2022-10-31T12:49:19;8.87;;;3.60;;